Belgrade, MN

7:28 PM CDT on April 29, 2017 (GMT -0500)
MMN043 | | Change Station

Elev 1246 ft 45.43 °N, 94.93 °W | Updated 1 minute ago

Clear
Clear
51.0 °F
Feels Like 51.0 °F
N
14.0
Wind Variable Wind from NE
Gusts 23.0 mph

Today
High -- | Low -- °F
--% Chance of Precip.
Yesterday
High -- | Low -- °F
Precip. -- in
Pressure 30.18 in
Visibility 10.0 miles
Clouds Clear
Dew Point 21.0 °F
Humidity 31%
Rainfall in
Snow Depth Not available.
6:10 AM 8:24 PM
Waxing Crescent, 17% visible
METAR KPEX 300013Z AUTO 03010G16KT 10SM CLR 11/M05 A3018 RMK AO2 T01111054
Pressure 30.18 in
Visibility 10.0 miles
Clouds Clear
Dew Point 21.0 °F
Humidity 31%
Rainfall in
Snow Depth Not available.
6:10 AM 8:24 PM
Waxing Crescent, 17% visible
METAR KPEX 300013Z AUTO 03010G16KT 10SM CLR 11/M05 A3018 RMK AO2 T01111054

Get Severe Weather Alerts

Thanks for signing up!

Be on the lookout for a verification email in your inbox.

You'll start receiving the daily forecast at 8 AM.

×

10-Day Weather Forecast

Almanac

Astronomy

Apr. 29, 2017 Rise Set
Actual Time
Civil Twilight
Nautical Twilight
Astronomical Twilight
Moon
Length of Visible Light
Length of Day
Tomorrow will be .
, % of the Moon is Illuminated

Today's Extremes

State Highs State Lows

Community

WunderPhotos

WunderBlog® & News

Nearby

Air Quality

  Air Quality AQ Index Pollutant
Not available.

Snow Depth

Station Depth Elevation

Earthquake Activity

City Distance Mag. Time & Date
Minimum magnitude displayed is 2.5.

Coastal Water Temperatures

Place Temperature

Stations

Nearby Weather Stations

Station Location Temp. Windchill Dew Point Humidity Wind Precip. Elev Updated Type
                   

Watches & Warnings

There are currently no watches in effect.